NCAR-RAP Real-Time Weather Data

Output produced by METARs form (24 April 2018  22:54 UTC)
found at http://weather.rap.ucar.edu/surface/
 
Conditions at: KLOU observed 24 April 2018  22:31 UTC
Temperature: 14.4°C (58°F)
Dewpoint: 13.3°C (56°F) [RH = 93%]
Pressure (altimeter): 29.90 inches Hg (1012.6 mb)
Winds: from the NNW (340 degrees) at 5 MPH (4 knots; 2.1 m/s)
Visibility: 10 or more miles (16+ km)
Ceiling: 800 feet AGL
Clouds: broken clouds at 800 feet AGL
broken clouds at 1500 feet AGL
overcast cloud deck at 4200 feet AGL
Present Weather: -RA  (light rain)
KLOU 242231Z 34004KT 10SM -RA BKN008 BKN015 OVC042 14/13 A2990 RMK AO2 RAE2154B16 P0000 T01440133